Time;durP1;ratioP1;P1;durP2;ratioP2;P2;SDS_P1;SDS_P2;PMS_P1;PMS_P2;Temp;Humidity;BMP_temperature;BMP_pressure;BME280_temperature;BME280_humidity;BME280_pressure;Samples;Min_cycle;Max_cycle;Signal;HPM_P1;HPM_P2
2023/03/17 00:00:41;;;;;;;12.80;10.30;;;;;;;8.88;62.32;101686.95;106867;1271;22573;-50
2023/03/17 00:03:22;;;;;;;14.50;10.50;;;;;;;8.88;62.41;101692.15;107048;1270;22731;-50
2023/03/17 00:05:52;;;;;;;12.40;9.80;;;;;;;8.87;62.17;101694.23;107155;1269;24358;-49
2023/03/17 00:08:23;;;;;;;12.20;10.00;;;;;;;8.84;61.92;101692.66;107032;1270;22776;-50
2023/03/17 00:10:51;;;;;;;12.20;10.80;;;;;;;8.82;62.22;101690.08;106972;1274;22534;-49
2023/03/17 00:13:20;;;;;;;11.60;9.50;;;;;;;8.81;62.08;101688.69;107111;1270;22543;-49
2023/03/17 00:15:55;;;;;;;12.00;10.20;;;;;;;8.77;62.08;101684.87;106494;1267;1003113;-50
2023/03/17 00:18:29;;;;;;;11.30;9.60;;;;;;;8.77;62.46;101687.29;107082;1270;25509;-50
2023/03/17 00:20:58;;;;;;;10.90;9.50;;;;;;;8.80;62.42;101684.70;106396;1269;1003019;-50
2023/03/17 00:23:27;;;;;;;12.10;9.40;;;;;;;8.93;61.84;101689.90;107104;1270;25377;-49
2023/03/17 00:25:56;;;;;;;12.60;9.30;;;;;;;8.93;61.54;101689.04;106896;1270;25321;-49
2023/03/17 00:28:26;;;;;;;10.80;9.40;;;;;;;8.92;61.48;101693.70;106844;1267;22531;-50
2023/03/17 00:30:57;;;;;;;12.40;9.60;;;;;;;8.91;61.55;101691.63;107077;1270;25369;-49
2023/03/17 00:33:27;;;;;;;11.30;9.60;;;;;;;8.89;61.61;101688.68;107203;1270;22536;-49
2023/03/17 00:35:56;;;;;;;11.20;9.10;;;;;;;8.87;61.63;101695.96;106851;1267;24341;-48
2023/03/17 00:38:25;;;;;;;12.20;9.90;;;;;;;8.85;61.60;101694.22;106262;1261;1003069;-50
2023/03/17 00:40:56;;;;;;;12.00;9.30;;;;;;;8.84;61.52;101693.36;107040;1267;25461;-50
2023/03/17 00:43:25;;;;;;;11.60;9.90;;;;;;;8.80;61.44;101694.20;107123;1267;23864;-48
2023/03/17 00:45:54;;;;;;;13.10;9.80;;;;;;;8.77;61.74;101693.00;106115;1274;1003073;-50
2023/03/17 00:48:24;;;;;;;14.90;9.70;;;;;;;8.76;61.96;101700.63;107060;1270;24238;-50
2023/03/17 00:50:53;;;;;;;11.80;9.60;;;;;;;8.75;61.84;101698.88;107031;1267;22527;-50
2023/03/17 00:53:22;;;;;;;12.80;9.20;;;;;;;8.73;62.03;101700.43;106352;1267;1002350;-50
2023/03/17 00:55:51;;;;;;;13.30;9.70;;;;;;;8.72;62.10;101699.73;107096;1268;22527;-50
2023/03/17 00:58:29;;;;;;;13.70;10.10;;;;;;;8.71;62.07;101703.03;107077;1266;25333;-50
2023/03/17 01:00:58;;;;;;;13.50;10.00;;;;;;;8.73;62.37;101699.40;107144;1267;25384;-50
2023/03/17 01:03:28;;;;;;;15.00;10.40;;;;;;;8.75;62.07;101709.95;106820;1272;25419;-50
2023/03/17 01:05:56;;;;;;;13.20;10.10;;;;;;;8.76;61.82;101710.65;107025;1269;22533;-48
2023/03/17 01:08:25;;;;;;;13.30;9.20;;;;;;;8.73;61.65;101706.48;107087;1274;25401;-50
2023/03/17 01:10:53;;;;;;;12.90;9.50;;;;;;;8.72;61.92;101706.84;106353;1267;1015537;-50
2023/03/17 01:13:28;;;;;;;12.80;9.50;;;;;;;8.71;61.92;101707.52;106404;1270;1002993;-50
2023/03/17 01:15:56;;;;;;;13.00;10.20;;;;;;;8.69;61.73;101707.88;107091;1267;22630;-50
2023/03/17 01:18:25;;;;;;;14.90;10.50;;;;;;;8.68;62.00;101714.45;107134;1267;25465;-49
2023/03/17 01:20:54;;;;;;;12.40;9.20;;;;;;;8.69;62.04;101713.92;107084;1270;22531;-50
2023/03/17 01:23:22;;;;;;;13.70;9.30;;;;;;;8.70;61.57;101714.61;106875;1268;22545;-50
2023/03/17 01:25:52;;;;;;;15.30;9.80;;;;;;;8.69;61.95;101714.27;106352;1267;1003442;-49
2023/03/17 01:28:22;;;;;;;11.80;9.70;;;;;;;8.68;61.79;101715.83;107044;1267;25404;-49
2023/03/17 01:30:51;;;;;;;16.30;9.40;;;;;;;8.68;61.86;101720.49;107080;1267;24255;-49
2023/03/17 01:33:19;;;;;;;12.40;9.80;;;;;;;8.69;61.83;101724.14;107229;1267;22559;-49
2023/03/17 01:35:48;;;;;;;13.10;9.60;;;;;;;8.70;61.72;101726.90;107029;1267;25440;-49
2023/03/17 01:38:17;;;;;;;11.80;9.10;;;;;;;8.72;61.85;101725.69;107143;1267;23377;-49
2023/03/17 01:40:48;;;;;;;12.90;9.40;;;;;;;8.73;61.79;101728.63;107033;1274;25328;-49
2023/03/17 01:43:26;;;;;;;11.90;8.70;;;;;;;8.73;61.32;101727.59;107012;1271;25353;-48
2023/03/17 01:46:16;;;;;;;12.00;8.80;;;;;;;8.71;61.37;101729.67;107087;1267;22527;-50
2023/03/17 01:48:48;;;;;;;10.90;8.40;;;;;;;8.71;61.49;101731.40;106365;1268;1003936;-49
2023/03/17 01:51:26;;;;;;;14.00;9.30;;;;;;;8.72;61.52;101732.44;107142;1267;25366;-49
2023/03/17 01:53:54;;;;;;;11.80;8.50;;;;;;;8.71;61.40;101736.92;107031;1254;25564;-49
2023/03/17 01:56:23;;;;;;;11.80;8.10;;;;;;;8.70;61.09;101739.17;107171;1267;26567;-49
2023/03/17 01:58:53;;;;;;;10.60;7.90;;;;;;;8.69;61.10;101744.38;107080;1271;25243;-51
2023/03/17 02:01:26;;;;;;;14.90;8.50;;;;;;;8.69;61.35;101741.78;107085;1267;26541;-50
2023/03/17 02:03:55;;;;;;;12.40;8.40;;;;;;;8.67;61.26;101740.91;107056;1267;22528;-49
2023/03/17 02:06:24;;;;;;;12.70;7.60;;;;;;;8.65;60.99;101740.73;107076;1267;25399;-49
2023/03/17 02:09:00;;;;;;;10.90;7.80;;;;;;;8.64;61.24;101751.27;107057;1270;25337;-49
2023/03/17 02:11:32;;;;;;;10.70;7.90;;;;;;;8.62;61.05;101750.07;106135;1266;1003571;-49
2023/03/17 02:14:01;;;;;;;11.10;7.40;;;;;;;8.60;60.86;101749.02;106994;1267;22733;-50
2023/03/17 02:16:31;;;;;;;9.60;7.20;;;;;;;8.58;60.88;101746.77;107068;1271;22546;-48
2023/03/17 02:19:00;;;;;;;11.90;7.70;;;;;;;8.56;61.07;101756.61;106847;1267;22527;-49
2023/03/17 02:21:40;;;;;;;9.70;7.30;;;;;;;8.57;61.01;101754.20;107084;1267;22540;-49
2023/03/17 02:24:29;;;;;;;8.50;6.90;;;;;;;8.57;60.81;101760.09;107076;1267;26131;-49
2023/03/17 02:27:30;;;;;;;10.10;7.80;;;;;;;8.56;60.93;101761.83;107080;1267;25325;-49
2023/03/17 02:30:00;;;;;;;11.20;7.90;;;;;;;8.55;61.07;101765.80;107025;1267;22525;-49
2023/03/17 02:32:34;;;;;;;8.70;6.60;;;;;;;8.54;60.89;101768.21;107146;1267;25366;-49
2023/03/17 02:35:03;;;;;;;10.50;7.10;;;;;;;8.56;60.92;101773.58;106972;1271;22528;-49
2023/03/17 02:37:33;;;;;;;10.40;7.40;;;;;;;8.58;60.80;101769.94;107095;1261;23078;-49
2023/03/17 02:40:04;;;;;;;10.90;7.40;;;;;;;8.61;60.59;101776.35;107057;1267;25389;-48
2023/03/17 02:42:34;;;;;;;8.50;6.20;;;;;;;8.60;60.73;101778.61;106787;1267;22534;-48
2023/03/17 02:45:03;;;;;;;8.30;6.70;;;;;;;8.59;60.71;101777.39;106448;1267;23720;-48
2023/03/17 02:47:32;;;;;;;7.90;6.00;;;;;;;8.58;60.31;101777.90;107021;1270;25359;-49
2023/03/17 02:50:00;;;;;;;8.30;6.50;;;;;;;8.56;60.42;101781.02;106933;1267;331849;-48
2023/03/17 02:52:30;;;;;;;8.50;7.10;;;;;;;8.53;60.49;101781.88;106679;1270;25350;-49
2023/03/17 02:54:59;;;;;;;8.80;6.90;;;;;;;8.52;60.33;101783.77;106754;1270;25461;-49
2023/03/17 02:57:28;;;;;;;8.60;6.70;;;;;;;8.50;60.15;101791.71;106833;1270;24588;-49
2023/03/17 02:59:57;;;;;;;8.70;6.90;;;;;;;8.51;60.52;101784.45;106793;1274;25360;-49
2023/03/17 03:02:26;;;;;;;8.00;6.80;;;;;;;8.53;60.74;101787.23;106774;1269;25331;-48
2023/03/17 03:04:55;;;;;;;8.90;7.00;;;;;;;8.50;60.47;101793.10;106064;1269;1003055;-48
2023/03/17 03:07:24;;;;;;;8.80;6.90;;;;;;;8.49;60.30;101791.89;106818;1270;22543;-49
2023/03/17 03:09:52;;;;;;;7.20;5.90;;;;;;;8.48;60.27;101791.36;106750;1270;25321;-49
2023/03/17 03:12:21;;;;;;;6.90;6.20;;;;;;;8.48;60.46;101791.19;106829;1270;25590;-49
2023/03/17 03:14:51;;;;;;;8.50;6.60;;;;;;;8.47;60.14;101798.81;106790;1270;25334;-49
2023/03/17 03:17:20;;;;;;;7.60;6.40;;;;;;;8.47;60.21;101798.64;106750;1257;25347;-49
2023/03/17 03:19:53;;;;;;;6.30;5.70;;;;;;;8.43;60.64;101808.30;106679;1270;25357;-49
2023/03/17 03:22:21;;;;;;;7.50;6.30;;;;;;;8.40;60.67;101807.95;106750;1271;25477;-49
2023/03/17 03:24:50;;;;;;;7.60;6.50;;;;;;;8.46;60.53;101807.45;106766;1267;24377;-49
2023/03/17 03:27:19;;;;;;;8.90;6.10;;;;;;;8.46;60.55;101805.36;107061;1270;25221;-49
2023/03/17 03:29:48;;;;;;;7.20;5.90;;;;;;;8.47;60.65;101806.39;107014;1270;22548;-48
2023/03/17 03:32:16;;;;;;;8.10;6.50;;;;;;;8.48;60.63;101816.10;107155;1267;22631;-49
2023/03/17 03:34:45;;;;;;;7.30;6.20;;;;;;;8.49;60.41;101816.27;107224;1266;25327;-49
2023/03/17 03:37:14;;;;;;;6.90;6.00;;;;;;;8.47;60.35;101814.38;107006;1266;25350;-49
2023/03/17 03:39:42;;;;;;;6.70;6.00;;;;;;;8.45;60.24;101814.35;106782;1267;25540;-49
2023/03/17 03:42:11;;;;;;;7.90;6.40;;;;;;;8.44;60.34;101822.13;107135;1266;25341;-49
2023/03/17 03:44:42;;;;;;;6.40;5.70;;;;;;;8.42;60.48;101828.69;107093;1266;25488;-49
2023/03/17 03:47:11;;;;;;;5.60;5.10;;;;;;;8.41;60.37;101827.14;106338;1267;1002847;-49
2023/03/17 03:49:45;;;;;;;6.50;5.70;;;;;;;8.42;60.66;101832.84;106365;1267;1003201;-50
2023/03/17 03:52:13;;;;;;;6.50;5.90;;;;;;;8.44;60.92;101834.94;106790;1269;22619;-49
2023/03/17 03:54:41;;;;;;;6.80;5.50;;;;;;;8.46;60.87;101837.69;107176;1267;25575;-49
2023/03/17 03:57:10;;;;;;;5.70;5.20;;;;;;;8.45;60.87;101842.02;107052;1268;25376;-49
2023/03/17 03:59:38;;;;;;;5.80;5.20;;;;;;;8.44;60.74;101845.13;107089;1268;23062;-50
2023/03/17 04:02:10;;;;;;;6.10;5.50;;;;;;;8.45;60.39;101844.27;106704;1273;25510;-49
2023/03/17 04:04:39;;;;;;;5.20;4.70;;;;;;;8.43;60.19;101841.83;106841;1254;25405;-49
2023/03/17 04:07:08;;;;;;;5.50;5.00;;;;;;;8.40;60.20;101839.07;107126;1267;25559;-49
2023/03/17 04:09:38;;;;;;;5.80;5.20;;;;;;;8.37;60.03;101839.73;107073;1267;25360;-49
2023/03/17 04:12:08;;;;;;;5.50;5.00;;;;;;;8.38;60.33;101840.78;106948;1267;25318;-49
2023/03/17 04:14:38;;;;;;;5.50;5.00;;;;;;;8.41;60.42;101841.66;107088;1267;25322;-50
2023/03/17 04:17:08;;;;;;;5.90;5.30;;;;;;;8.42;60.11;101844.08;106927;1267;25350;-50
2023/03/17 04:19:37;;;;;;;5.00;4.50;;;;;;;8.44;60.23;101846.86;107117;1267;22552;-49
2023/03/17 04:22:10;;;;;;;5.30;4.60;;;;;;;8.45;60.12;101846.17;107123;1271;25337;-50
2023/03/17 04:24:39;;;;;;;5.40;4.90;;;;;;;8.44;60.24;101841.66;106832;1267;22656;-49
2023/03/17 04:27:08;;;;;;;6.10;5.40;;;;;;;8.44;60.45;101851.52;107064;1267;23983;-49
2023/03/17 04:29:41;;;;;;;5.60;5.10;;;;;;;8.46;60.37;101852.40;106983;1267;25377;-49
2023/03/17 04:32:12;;;;;;;5.60;5.10;;;;;;;8.46;59.88;101855.50;107222;1266;25498;-49
2023/03/17 04:34:44;;;;;;;5.20;4.70;;;;;;;8.45;59.75;101857.41;106177;1270;1003195;-50
2023/03/17 04:37:12;;;;;;;5.30;4.80;;;;;;;8.47;59.63;101855.86;107086;1267;22999;-49
2023/03/17 04:39:42;;;;;;;5.70;5.20;;;;;;;8.48;59.63;101857.77;106780;1270;25348;-48
2023/03/17 04:42:11;;;;;;;5.70;5.10;;;;;;;8.47;59.42;101855.17;107121;1267;25417;-48
2023/03/17 04:44:40;;;;;;;5.20;4.70;;;;;;;8.45;59.76;101856.20;107197;1267;25325;-49
2023/03/17 04:47:08;;;;;;;4.80;4.30;;;;;;;8.44;59.58;101854.46;107155;1266;23780;-49
2023/03/17 04:49:37;;;;;;;4.80;4.40;;;;;;;8.43;59.35;101858.44;106438;1267;1003727;-49
2023/03/17 04:52:05;;;;;;;4.30;3.90;;;;;;;8.44;59.55;101859.83;107108;1270;22524;-49
2023/03/17 04:54:35;;;;;;;4.90;4.40;;;;;;;8.43;59.13;101866.05;106860;1267;24215;-49
2023/03/17 04:57:03;;;;;;;4.40;3.70;;;;;;;8.43;59.29;101874.35;107134;1267;24204;-49
2023/03/17 04:59:32;;;;;;;6.30;4.50;;;;;;;8.43;59.05;101874.17;107215;1266;25474;-49
2023/03/17 05:02:01;;;;;;;4.10;3.70;;;;;;;8.43;59.05;101875.91;106809;1272;25335;-49
2023/03/17 05:04:33;;;;;;;4.50;4.10;;;;;;;8.42;59.03;101878.31;107052;1267;25401;-49
2023/03/17 05:07:01;;;;;;;4.50;4.10;;;;;;;8.39;59.16;101881.23;107109;1269;25484;-49
2023/03/17 05:09:30;;;;;;;5.50;3.70;;;;;;;8.39;59.02;101883.14;107049;1266;22514;-48
2023/03/17 05:11:58;;;;;;;4.00;3.70;;;;;;;8.38;59.03;101891.59;107106;1266;25350;-49
2023/03/17 05:14:27;;;;;;;4.20;3.80;;;;;;;8.39;58.97;101897.33;107105;1266;25377;-48
2023/03/17 05:16:56;;;;;;;4.80;4.10;;;;;;;8.39;58.96;101899.73;106087;1269;1003245;-48
2023/03/17 05:19:29;;;;;;;4.10;3.70;;;;;;;8.36;59.08;101901.27;107011;1267;25441;-49
2023/03/17 05:21:57;;;;;;;4.70;4.00;;;;;;;8.37;59.03;101902.31;107148;1266;25332;-48
2023/03/17 05:24:26;;;;;;;4.90;3.90;;;;;;;8.37;59.00;101910.45;107161;1266;24216;-48
2023/03/17 05:26:55;;;;;;;4.60;3.90;;;;;;;8.37;59.01;101912.34;107134;1267;25360;-49
2023/03/17 05:29:23;;;;;;;3.60;3.30;;;;;;;8.37;58.83;101910.79;107048;1257;22527;-49
2023/03/17 05:31:53;;;;;;;4.20;3.80;;;;;;;8.37;59.17;101912.35;107220;1267;25325;-49
2023/03/17 05:34:22;;;;;;;4.20;3.60;;;;;;;8.32;59.32;101911.45;106927;1267;25408;-49
2023/03/17 05:36:52;;;;;;;5.10;3.30;;;;;;;8.30;59.08;101911.79;107048;1267;25378;-49
2023/03/17 05:39:22;;;;;;;4.10;3.70;;;;;;;8.37;58.89;101910.79;107180;1264;25343;-49
2023/03/17 05:41:51;;;;;;;4.50;3.60;;;;;;;8.40;58.97;101915.46;107085;1267;25388;-49
2023/03/17 05:44:20;;;;;;;5.90;3.70;;;;;;;8.49;58.57;101915.35;107079;1253;23334;-47
2023/03/17 05:46:50;;;;;;;4.60;3.70;;;;;;;8.54;58.46;101920.05;107087;1267;25315;-48
2023/03/17 05:49:19;;;;;;;3.90;3.50;;;;;;;8.57;57.98;101921.46;107102;1270;25307;-48
2023/03/17 05:51:47;;;;;;;3.80;3.40;;;;;;;8.56;58.13;101922.66;107078;1254;24327;-48
2023/03/17 05:54:15;;;;;;;4.10;3.70;;;;;;;8.56;58.05;101922.48;106795;1259;25348;-48
2023/03/17 05:56:46;;;;;;;4.40;3.90;;;;;;;8.55;58.02;101929.05;106191;1270;1002978;-48
2023/03/17 05:59:15;;;;;;;3.90;3.50;;;;;;;8.52;58.13;101932.15;106292;1260;1003681;-49
2023/03/17 06:01:45;;;;;;;3.50;3.00;;;;;;;8.54;58.12;101928.35;107059;1268;25332;-49
2023/03/17 06:04:14;;;;;;;4.60;4.00;;;;;;;8.58;57.81;101928.20;107081;1266;24252;-48
2023/03/17 06:06:43;;;;;;;4.00;3.20;;;;;;;8.51;58.28;101929.21;107131;1266;25274;-48
2023/03/17 06:09:13;;;;;;;4.80;3.30;;;;;;;8.47;58.56;101925.90;107131;1266;25346;-47
2023/03/17 06:11:42;;;;;;;4.80;3.70;;;;;;;8.49;58.20;101925.23;107148;1266;22644;-48
2023/03/17 06:14:15;;;;;;;3.90;3.30;;;;;;;8.51;58.04;101924.36;107111;1267;25369;-49
2023/03/17 06:17:04;;;;;;;5.40;3.60;;;;;;;8.54;57.83;101929.73;106839;1267;22521;-49
2023/03/17 06:19:32;;;;;;;4.80;3.30;;;;;;;8.55;57.78;101925.42;106801;1266;23367;-49
2023/03/17 06:22:01;;;;;;;5.80;4.20;;;;;;;8.64;57.96;101931.16;106997;1267;25339;-49
2023/03/17 06:24:30;;;;;;;4.40;3.70;;;;;;;8.72;57.52;101935.17;105978;1267;1003361;-48
2023/03/17 06:27:01;;;;;;;;;;;;;;;8.75;57.31;101934.51;106234;1269;1002796;-48
2023/03/17 06:29:30;;;;;;;4.80;4.00;;;;;;;8.77;56.91;101934.68;106299;1267;1003478;-49
2023/03/17 06:31:59;;;;;;;4.00;3.50;;;;;;;8.73;56.83;101939.68;106912;1273;25321;-49
2023/03/17 06:34:47;;;;;;;7.20;3.70;;;;;;;8.77;56.93;101943.85;106187;1267;1016218;-48
2023/03/17 06:37:16;;;;;;;8.60;4.20;;;;;;;8.81;56.64;101945.27;107063;1252;22517;-48
2023/03/17 06:39:45;;;;;;;4.80;3.80;;;;;;;8.73;56.78;101949.20;106986;1269;25421;-48
2023/03/17 06:42:13;;;;;;;4.70;3.60;;;;;;;8.68;57.05;101949.35;106370;1251;1002860;-49
2023/03/17 06:44:41;;;;;;;5.30;3.90;;;;;;;8.72;57.02;101955.08;107171;1253;24208;-48
2023/03/17 06:47:10;;;;;;;4.90;3.60;;;;;;;8.82;56.45;101958.59;107100;1267;25342;-49
2023/03/17 06:49:39;;;;;;;4.50;3.60;;;;;;;8.75;56.60;101966.16;107067;1266;25382;-48
2023/03/17 06:52:09;;;;;;;4.30;3.60;;;;;;;8.73;56.88;101964.08;107132;1267;23159;-48
2023/03/17 06:54:39;;;;;;;4.40;3.40;;;;;;;8.73;56.63;101972.73;107101;1267;24205;-48
2023/03/17 06:57:08;;;;;;;4.80;3.70;;;;;;;8.72;56.62;101964.41;107121;1267;25532;-48
2023/03/17 06:59:37;;;;;;;4.60;3.40;;;;;;;8.73;56.99;101969.79;107172;1266;25339;-48
2023/03/17 07:02:06;;;;;;;3.70;3.30;;;;;;;8.74;57.23;101970.48;106349;1254;1002878;-48
2023/03/17 07:04:37;;;;;;;3.80;3.30;;;;;;;8.75;56.92;101967.02;106856;1271;25363;-48
2023/03/17 07:07:07;;;;;;;3.90;3.40;;;;;;;8.77;56.93;101974.12;106010;1270;1003850;-48
2023/03/17 07:09:36;;;;;;;3.60;3.20;;;;;;;8.80;56.65;101976.90;106781;1270;25348;-48
2023/03/17 07:12:07;;;;;;;3.80;3.20;;;;;;;8.83;56.63;101977.11;106017;1271;1003061;-48
2023/03/17 07:14:36;;;;;;;4.20;3.10;;;;;;;8.85;56.28;101975.22;106762;1270;22583;-49
2023/03/17 07:17:05;;;;;;;5.10;3.10;;;;;;;8.86;56.51;101980.08;106783;1270;22649;-48
2023/03/17 07:19:34;;;;;;;3.10;2.70;;;;;;;8.86;56.01;101976.95;106833;1256;25474;-48
2023/03/17 07:22:04;;;;;;;3.30;2.60;;;;;;;8.87;56.16;101975.39;106806;1270;25345;-49
2023/03/17 07:24:33;;;;;;;6.40;3.40;;;;;;;8.90;56.13;101975.75;106527;1275;22660;-48
2023/03/17 07:27:04;;;;;;;3.20;2.90;;;;;;;8.92;56.09;101971.95;106774;1270;22511;-49
2023/03/17 07:29:37;;;;;;;3.50;2.80;;;;;;;8.94;55.63;101973.86;106782;1270;25361;-50
2023/03/17 07:32:08;;;;;;;3.30;3.00;;;;;;;8.96;55.46;101977.52;106752;1270;25367;-49
2023/03/17 07:34:36;;;;;;;4.00;2.60;;;;;;;8.96;55.65;101981.84;106759;1271;22657;-49
2023/03/17 07:37:05;;;;;;;3.10;2.80;;;;;;;8.99;55.71;101979.25;106623;1272;25389;-49
2023/03/17 07:39:34;;;;;;;2.10;2.00;;;;;;;9.01;55.72;101974.59;106651;1270;24210;-49
2023/03/17 07:42:10;;;;;;;2.90;2.60;;;;;;;9.04;55.59;101972.02;106944;1268;25363;-49
2023/03/17 07:44:40;;;;;;;2.40;2.20;;;;;;;9.09;55.52;101970.47;106816;1269;24286;-49
2023/03/17 07:47:09;;;;;;;2.50;2.30;;;;;;;9.14;55.38;101967.89;107011;1268;25342;-49
2023/03/17 07:49:38;;;;;;;2.80;2.60;;;;;;;9.19;55.18;101972.91;106889;1268;25370;-49
2023/03/17 07:52:10;;;;;;;3.60;2.90;;;;;;;9.19;54.92;101979.33;106895;1272;22650;-49
2023/03/17 07:54:43;;;;;;;4.30;2.60;;;;;;;9.16;54.76;101981.21;107010;1270;25350;-49
2023/03/17 07:57:12;;;;;;;3.40;2.50;;;;;;;9.12;54.86;101979.66;107012;1269;22605;-49
2023/03/17 07:59:40;;;;;;;3.30;2.50;;;;;;;9.14;55.08;101985.02;106320;1268;1002994;-49
2023/03/17 08:02:15;;;;;;;2.80;2.30;;;;;;;9.17;54.98;101988.67;106917;1268;22534;-49
2023/03/17 08:04:43;;;;;;;2.90;2.40;;;;;;;9.19;54.65;101987.27;106920;1268;25360;-49
2023/03/17 08:07:13;;;;;;;2.70;2.50;;;;;;;9.21;54.88;101990.41;106997;1269;25577;-49
2023/03/17 08:09:42;;;;;;;2.90;2.40;;;;;;;9.25;54.88;101993.04;106142;1269;1003343;-49
2023/03/17 08:12:11;;;;;;;4.50;2.50;;;;;;;9.27;54.79;101990.45;106127;1269;1004089;-48
2023/03/17 08:14:45;;;;;;;3.60;2.90;;;;;;;9.30;54.88;102000.14;106924;1269;25389;-48
2023/03/17 08:17:14;;;;;;;3.40;2.50;;;;;;;9.34;54.38;102001.73;106237;1268;1003360;-49
2023/03/17 08:19:43;;;;;;;3.00;2.70;;;;;;;9.38;54.23;102001.91;106983;1269;22532;-49
2023/03/17 08:22:12;;;;;;;5.80;2.80;;;;;;;9.41;54.53;102004.67;106857;1272;24381;-48
2023/03/17 08:24:43;;;;;;;4.20;2.40;;;;;;;9.43;54.19;102004.34;106875;1272;25342;-48
2023/03/17 08:27:12;;;;;;;3.30;2.40;;;;;;;9.44;54.15;102005.55;106035;1270;1002882;-48
2023/03/17 08:29:42;;;;;;;3.50;3.00;;;;;;;9.49;53.96;102004.18;106898;1269;25412;-48
2023/03/17 08:32:12;;;;;;;3.30;2.70;;;;;;;9.54;54.08;102003.67;106925;1255;22709;-48
2023/03/17 08:34:40;;;;;;;5.00;2.80;;;;;;;9.58;53.89;102001.95;106946;1254;25356;-48
2023/03/17 08:37:09;;;;;;;3.60;2.80;;;;;;;9.62;54.09;102000.56;107036;1267;25363;-48
2023/03/17 08:39:39;;;;;;;3.80;3.00;;;;;;;9.64;54.04;102000.74;106897;1267;24228;-47
2023/03/17 08:42:09;;;;;;;2.90;2.30;;;;;;;9.66;54.11;102002.48;107124;1257;26981;-48
2023/03/17 08:44:38;;;;;;;4.20;3.00;;;;;;;9.70;53.86;102005.98;107193;1266;24366;-50
2023/03/17 08:47:11;;;;;;;3.40;2.70;;;;;;;9.68;53.64;102006.14;107122;1267;25407;-48
2023/03/17 08:49:42;;;;;;;3.80;3.20;;;;;;;9.68;53.88;102009.60;107065;1253;25305;-48
2023/03/17 08:52:11;;;;;;;3.70;2.70;;;;;;;9.71;53.78;102009.61;106920;1269;24560;-48
2023/03/17 08:54:41;;;;;;;3.50;2.70;;;;;;;9.75;53.95;102008.23;107145;1266;25331;-48
2023/03/17 08:57:09;;;;;;;5.80;2.60;;;;;;;9.80;53.96;102003.90;107114;1268;25471;-49
2023/03/17 08:59:40;;;;;;;2.90;2.60;;;;;;;9.87;53.77;102003.38;107155;1268;25354;-48
2023/03/17 09:02:10;;;;;;;4.00;2.80;;;;;;;9.88;53.59;102004.08;106341;1267;1003061;-48
2023/03/17 09:04:40;;;;;;;4.30;2.80;;;;;;;9.92;53.49;102011.02;107167;1268;25419;-48
2023/03/17 09:07:10;;;;;;;3.40;2.80;;;;;;;9.95;53.50;102013.45;107081;1267;25324;-48
2023/03/17 09:09:39;;;;;;;4.10;3.10;;;;;;;9.98;53.31;102012.40;107101;1274;25398;-50
2023/03/17 09:12:08;;;;;;;4.50;3.50;;;;;;;9.99;52.93;102016.23;107154;1267;22520;-48
2023/03/17 09:14:39;;;;;;;4.30;3.20;;;;;;;9.96;52.88;102017.60;107149;1267;25492;-48
2023/03/17 09:17:13;;;;;;;5.40;3.30;;;;;;;9.92;52.76;102011.71;106798;1251;22643;-48
2023/03/17 09:19:42;;;;;;;4.70;3.40;;;;;;;9.89;52.92;102015.87;107075;1270;25248;-48
2023/03/17 09:22:12;;;;;;;3.40;2.60;;;;;;;9.89;53.06;102009.97;107082;1267;22540;-48
2023/03/17 09:24:41;;;;;;;5.10;2.80;;;;;;;9.92;53.25;102013.27;107064;1266;23884;-47
2023/03/17 09:27:12;;;;;;;4.50;3.50;;;;;;;9.96;53.28;102009.45;106858;1274;25381;-49
2023/03/17 09:29:41;;;;;;;3.60;2.90;;;;;;;10.00;53.18;102003.56;107099;1268;25367;-49
2023/03/17 09:32:10;;;;;;;5.10;3.30;;;;;;;10.04;53.06;102007.90;106956;1274;25348;-50
2023/03/17 09:34:38;;;;;;;4.10;2.80;;;;;;;10.08;52.98;102008.58;107057;1266;25488;-48
2023/03/17 09:37:08;;;;;;;4.30;3.20;;;;;;;10.08;53.17;102010.84;107143;1266;25376;-48
2023/03/17 09:39:38;;;;;;;4.40;3.10;;;;;;;10.10;53.33;102015.20;106935;1271;22535;-48
2023/03/17 09:42:12;;;;;;;;;;;;;;;10.13;53.24;102017.81;106374;1266;1003115;-48
2023/03/17 09:45:06;;;;;;;5.30;2.60;;;;;;;10.14;53.38;102020.75;107097;1266;25363;-49
2023/03/17 09:47:40;;;;;;;4.40;3.00;;;;;;;10.13;53.50;102019.55;106920;1272;24186;-49
2023/03/17 09:50:17;;;;;;;3.90;3.30;;;;;;;10.11;53.22;102024.41;107026;1270;25359;-49
2023/03/17 09:52:47;;;;;;;3.70;2.90;;;;;;;10.13;52.89;102025.09;106890;1267;24201;-49
2023/03/17 09:55:27;;;;;;;3.20;2.80;;;;;;;10.15;53.01;102023.37;106833;1266;25810;-49
2023/03/17 09:57:55;;;;;;;3.40;3.00;;;;;;;10.19;53.22;102025.80;106373;1266;1005423;-49
2023/03/17 10:00:26;;;;;;;3.80;2.90;;;;;;;10.24;52.76;102022.16;106841;1269;22520;-48
2023/03/17 10:02:56;;;;;;;2.90;2.60;;;;;;;10.26;52.32;102030.31;106360;1270;1003024;-50
2023/03/17 10:05:29;;;;;;;3.50;2.70;;;;;;;10.23;52.40;102029.27;107090;1268;25353;-48
2023/03/17 10:08:05;;;;;;;3.30;2.60;;;;;;;10.22;52.57;102026.83;107138;1267;22523;-48
2023/03/17 10:11:32;;;;;;;3.60;2.70;;;;;;;10.22;52.55;102027.88;106313;1267;1003414;-48
2023/03/17 10:14:03;;;;;;;3.40;2.60;;;;;;;10.21;52.47;102027.71;106720;1274;22577;-49
2023/03/17 10:16:53;;;;;;;4.10;3.10;;;;;;;10.17;52.12;102025.45;106867;1273;24279;-48
2023/03/17 10:19:29;;;;;;;3.90;2.80;;;;;;;10.16;52.10;102022.52;106694;1272;25282;-48
2023/03/17 10:22:24;;;;;;;3.70;2.70;;;;;;;10.19;52.41;102024.41;106678;1274;25339;-48
2023/03/17 10:24:56;;;;;;;2.80;2.50;;;;;;;10.22;52.79;102020.60;106767;1272;22547;-48
2023/03/17 10:27:26;;;;;;;3.70;3.00;;;;;;;10.26;52.31;102017.81;106547;1273;25561;-48
2023/03/17 10:29:55;;;;;;;3.30;2.70;;;;;;;10.27;52.27;102014.17;106428;1264;24940;-49
2023/03/17 10:32:24;;;;;;;4.50;3.10;;;;;;;10.29;52.21;102013.83;106539;1275;25351;-48
2023/03/17 10:34:56;;;;;;;3.20;2.90;;;;;;;10.30;52.28;102010.70;106500;1273;25412;-48
2023/03/17 10:37:28;;;;;;;3.20;2.70;;;;;;;10.34;52.48;102014.52;106632;1276;25348;-48
2023/03/17 10:39:58;;;;;;;3.80;2.90;;;;;;;10.38;52.50;102012.61;106510;1277;25356;-48
2023/03/17 10:42:28;;;;;;;;;;;;;;;10.44;52.25;102011.90;106481;1273;25337;-48
2023/03/17 10:45:12;;;;;;;3.00;2.30;;;;;;;10.50;51.89;102016.59;106773;1272;25438;-48
2023/03/17 10:47:44;;;;;;;3.00;2.60;;;;;;;10.49;51.63;102011.73;106666;1273;25454;-48
2023/03/17 10:50:20;;;;;;;4.20;2.80;;;;;;;10.47;51.55;102009.64;106690;1275;25279;-48
2023/03/17 10:52:56;;;;;;;3.50;2.80;;;;;;;10.47;51.85;102007.38;106908;1267;26491;-48
2023/03/17 10:55:28;;;;;;;4.00;3.20;;;;;;;10.48;52.00;102002.00;107070;1267;22527;-48
2023/03/17 10:58:04;;;;;;;4.40;2.90;;;;;;;10.49;51.78;101996.80;107041;1266;23225;-48
2023/03/17 11:00:35;;;;;;;5.70;2.80;;;;;;;10.52;51.79;101992.81;107045;1267;22501;-49
2023/03/17 11:03:21;;;;;;;3.10;2.60;;;;;;;10.55;51.49;101992.98;106901;1274;25411;-48
2023/03/17 11:05:55;;;;;;;3.30;2.40;;;;;;;10.57;51.80;101989.51;107078;1272;25358;-48
2023/03/17 11:08:23;;;;;;;3.80;2.10;;;;;;;10.60;52.02;101991.41;107002;1269;25370;-48
2023/03/17 11:10:58;;;;;;;3.90;2.70;;;;;;;10.66;51.96;101990.35;107022;1273;25362;-48
2023/03/17 11:13:30;;;;;;;3.30;3.00;;;;;;;10.71;52.00;101990.69;106437;1268;1003562;-48
2023/03/17 11:16:06;;;;;;;;;;;;;;;10.73;51.65;101993.28;106426;1266;1003346;-48
2023/03/17 11:18:36;;;;;;;2.50;2.10;;;;;;;10.74;51.18;101995.71;106911;1272;22524;-48
2023/03/17 11:21:28;;;;;;;5.10;2.80;;;;;;;10.72;51.69;101990.67;106462;1268;1003119;-47
2023/03/17 11:24:08;;;;;;;3.00;2.30;;;;;;;10.73;51.73;101990.34;107092;1268;22532;-48
2023/03/17 11:26:57;;;;;;;3.50;2.80;;;;;;;10.76;51.70;101989.28;107154;1267;22632;-48
2023/03/17 11:29:44;;;;;;;4.20;2.60;;;;;;;10.80;51.94;101989.27;107095;1267;22760;-48
2023/03/17 11:32:26;;;;;;;3.10;2.60;;;;;;;10.84;51.94;101989.60;106838;1267;25422;-48
2023/03/17 11:35:04;;;;;;;2.90;2.30;;;;;;;10.87;51.41;101991.16;106859;1267;25341;-48
2023/03/17 11:37:57;;;;;;;3.00;2.50;;;;;;;10.89;51.35;101984.72;107158;1267;23238;-49